Time;durP1;ratioP1;P1;durP2;ratioP2;P2;SDS_P1;SDS_P2;PMS_P1;PMS_P2;Temp;Humidity;BMP_temperature;BMP_pressure;BME280_temperature;BME280_humidity;BME280_pressure;Samples;Min_cycle;Max_cycle;Signal;HPM_P1;HPM_P2
2022/11/09 00:01:03;;;;;;;;;3.00;2.00;;;;;;;;5094436;27;45610;-76
2022/11/09 00:03:28;;;;;;;;;4.00;3.00;;;;;;;;5082228;27;45535;-75
2022/11/09 00:05:57;;;;;;;;;4.67;2.00;;;;;;;;5091376;27;46197;-75
2022/11/09 00:08:22;;;;;;;;;2.00;2.00;;;;;;;;5090885;27;45386;-75
2022/11/09 00:10:48;;;;;;;;;3.00;1.67;;;;;;;;5084164;27;45403;-75
2022/11/09 00:13:13;;;;;;;;;4.67;3.00;;;;;;;;5095993;27;46976;-75
2022/11/09 00:15:38;;;;;;;;;6.00;3.00;;;;;;;;5094581;27;45376;-75
2022/11/09 00:18:03;;;;;;;;;4.00;2.00;;;;;;;;5081943;27;45456;-75
2022/11/09 00:20:28;;;;;;;;;4.67;2.00;;;;;;;;5083510;27;45312;-76
2022/11/09 00:22:54;;;;;;;;;2.33;2.33;;;;;;;;5083682;27;45564;-76
2022/11/09 00:25:19;;;;;;;;;3.00;3.00;;;;;;;;5080483;27;47214;-77
2022/11/09 00:27:44;;;;;;;;;3.33;2.00;;;;;;;;5087949;27;45410;-77
2022/11/09 00:30:09;;;;;;;;;2.00;2.00;;;;;;;;5082193;27;45149;-77
2022/11/09 00:32:35;;;;;;;;;4.00;1.00;;;;;;;;5087084;27;45266;-79
2022/11/09 00:35:00;;;;;;;;;4.00;2.67;;;;;;;;5089964;27;45496;-78
2022/11/09 00:37:27;;;;;;;;;6.67;3.00;;;;;;;;5084243;27;45406;-78
2022/11/09 00:39:53;;;;;;;;;3.00;1.67;;;;;;;;5097804;27;45430;-77
2022/11/09 00:42:18;;;;;;;;;3.67;2.67;;;;;;;;5087755;27;45303;-79
2022/11/09 00:44:43;;;;;;;;;5.00;1.67;;;;;;;;5085927;27;45330;-78
2022/11/09 00:47:08;;;;;;;;;2.00;2.00;;;;;;;;5090934;27;45331;-78
2022/11/09 00:49:33;;;;;;;;;4.33;2.33;;;;;;;;5087854;27;45371;-78
2022/11/09 00:51:59;;;;;;;;;5.00;3.00;;;;;;;;5086196;27;45482;-77
2022/11/09 00:54:24;;;;;;;;;4.33;2.67;;;;;;;;5086877;27;46279;-77
2022/11/09 00:56:49;;;;;;;;;5.33;2.67;;;;;;;;5083341;27;45563;-76
2022/11/09 00:59:14;;;;;;;;;4.00;3.00;;;;;;;;5079958;27;45415;-77
2022/11/09 01:01:39;;;;;;;;;6.00;2.67;;;;;;;;5086814;27;45384;-77
2022/11/09 01:04:05;;;;;;;;;3.33;3.33;;;;;;;;5085443;27;45391;-78
2022/11/09 01:06:30;;;;;;;;;2.33;2.00;;;;;;;;5088026;27;45403;-78
2022/11/09 01:08:56;;;;;;;;;1.67;1.00;;;;;;;;5086181;27;45404;-77
2022/11/09 01:11:22;;;;;;;;;2.33;2.33;;;;;;;;5095613;27;45379;-79
2022/11/09 01:13:47;;;;;;;;;3.00;2.00;;;;;;;;5082419;27;48150;-77
2022/11/09 01:16:14;;;;;;;;;3.33;2.00;;;;;;;;5083430;27;45255;-78
2022/11/09 01:18:39;;;;;;;;;3.00;3.00;;;;;;;;5085128;27;45206;-77
2022/11/09 01:21:05;;;;;;;;;5.33;3.33;;;;;;;;5093035;27;45597;-77
2022/11/09 01:23:31;;;;;;;;;2.33;2.33;;;;;;;;5085063;27;45657;-77
2022/11/09 01:26:00;;;;;;;;;3.00;2.00;;;;;;;;5081059;27;45343;-77
2022/11/09 01:28:26;;;;;;;;;2.67;2.67;;;;;;;;5080540;27;45606;-77
2022/11/09 01:30:51;;;;;;;;;2.67;2.67;;;;;;;;5081882;27;45231;-77
2022/11/09 01:33:16;;;;;;;;;3.00;2.00;;;;;;;;5080564;27;45307;-77
2022/11/09 01:35:41;;;;;;;;;2.00;2.00;;;;;;;;5085341;27;45377;-77
2022/11/09 01:38:07;;;;;;;;;2.67;2.33;;;;;;;;5080729;27;45275;-76
2022/11/09 01:40:33;;;;;;;;;1.67;1.00;;;;;;;;5082456;27;45409;-77
2022/11/09 01:43:04;;;;;;;;;4.00;2.00;;;;;;;;5085373;27;45333;-77
2022/11/09 01:45:29;;;;;;;;;1.67;1.33;;;;;;;;5098532;27;45370;-77
2022/11/09 01:47:58;;;;;;;;;2.33;2.00;;;;;;;;5087246;27;45299;-77
2022/11/09 01:50:33;;;;;;;;;3.00;1.33;;;;;;;;5080725;27;45271;-77
2022/11/09 01:53:00;;;;;;;;;2.33;1.67;;;;;;;;5083757;27;45345;-77
2022/11/09 01:55:25;;;;;;;;;3.00;1.00;;;;;;;;5080430;27;45227;-77
2022/11/09 01:57:54;;;;;;;;;1.00;1.00;;;;;;;;5089067;27;45280;-77
2022/11/09 02:00:20;;;;;;;;;2.00;2.00;;;;;;;;5087577;27;45530;-76
2022/11/09 02:02:49;;;;;;;;;2.67;1.00;;;;;;;;5082066;27;45460;-76
2022/11/09 02:05:16;;;;;;;;;1.67;1.33;;;;;;;;5080127;27;45453;-76
2022/11/09 02:07:42;;;;;;;;;3.00;1.33;;;;;;;;5082336;27;45460;-77
2022/11/09 02:10:08;;;;;;;;;5.67;2.00;;;;;;;;5078791;27;45327;-77
2022/11/09 02:12:34;;;;;;;;;2.67;1.00;;;;;;;;5089832;27;46087;-75
2022/11/09 02:15:01;;;;;;;;;2.00;1.00;;;;;;;;5078538;27;45344;-77
2022/11/09 02:17:28;;;;;;;;;2.00;1.67;;;;;;;;5090609;27;45365;-76
2022/11/09 02:19:55;;;;;;;;;1.00;1.00;;;;;;;;5079703;27;45488;-76
2022/11/09 02:22:21;;;;;;;;;0.67;0.67;;;;;;;;5084291;27;46492;-76
2022/11/09 02:24:46;;;;;;;;;0.67;0.67;;;;;;;;5079880;27;45236;-76
2022/11/09 02:27:12;;;;;;;;;1.33;1.00;;;;;;;;5081635;27;45408;-75
2022/11/09 02:29:39;;;;;;;;;2.67;1.00;;;;;;;;5079646;28;45366;-76
2022/11/09 02:32:13;;;;;;;;;1.00;1.00;;;;;;;;5082127;27;46203;-76
2022/11/09 02:34:38;;;;;;;;;1.33;1.33;;;;;;;;5084479;27;45406;-77
2022/11/09 02:37:03;;;;;;;;;1.00;1.00;;;;;;;;5082162;27;45281;-76
2022/11/09 02:39:28;;;;;;;;;1.00;1.00;;;;;;;;5079664;27;45302;-76
2022/11/09 02:41:54;;;;;;;;;1.00;1.00;;;;;;;;5087060;27;46408;-78
2022/11/09 02:44:19;;;;;;;;;1.33;0.67;;;;;;;;5096047;27;45421;-77
2022/11/09 02:46:44;;;;;;;;;0.33;0.33;;;;;;;;5086272;27;45302;-76
2022/11/09 02:49:11;;;;;;;;;2.00;0.33;;;;;;;;5082250;27;45469;-77
2022/11/09 02:51:36;;;;;;;;;1.00;1.00;;;;;;;;5087025;27;45356;-76
2022/11/09 02:54:01;;;;;;;;;1.00;1.00;;;;;;;;5079317;27;45147;-77
2022/11/09 02:56:27;;;;;;;;;1.00;0.67;;;;;;;;5084589;27;45260;-77
2022/11/09 02:58:52;;;;;;;;;1.00;0.33;;;;;;;;5098229;27;45410;-76
2022/11/09 03:01:17;;;;;;;;;0.00;0.00;;;;;;;;5082942;27;45389;-77
2022/11/09 03:03:43;;;;;;;;;0.67;0.67;;;;;;;;5079305;28;45223;-77
2022/11/09 03:06:08;;;;;;;;;1.00;1.00;;;;;;;;5081610;27;45343;-77
2022/11/09 03:08:33;;;;;;;;;1.00;1.00;;;;;;;;5079294;28;46449;-76
2022/11/09 03:10:59;;;;;;;;;2.67;2.00;;;;;;;;5083147;27;45591;-77
2022/11/09 03:13:24;;;;;;;;;2.33;1.00;;;;;;;;5090227;27;45358;-77
2022/11/09 03:15:49;;;;;;;;;0.33;0.33;;;;;;;;5092348;27;45194;-76
2022/11/09 03:18:14;;;;;;;;;1.00;1.00;;;;;;;;5081056;27;45516;-77
2022/11/09 03:20:39;;;;;;;;;0.33;0.33;;;;;;;;5089190;27;45223;-76
2022/11/09 03:23:05;;;;;;;;;4.67;0.00;;;;;;;;5077891;27;45162;-76
2022/11/09 03:25:30;;;;;;;;;3.00;1.00;;;;;;;;5080468;27;45219;-77
2022/11/09 03:27:56;;;;;;;;;4.00;1.00;;;;;;;;5081202;27;45223;-77
2022/11/09 03:30:21;;;;;;;;;0.00;0.00;;;;;;;;5091400;27;46653;-77
2022/11/09 03:32:46;;;;;;;;;1.00;1.00;;;;;;;;5083271;27;45396;-77
2022/11/09 03:35:11;;;;;;;;;0.00;0.00;;;;;;;;5083873;27;45484;-77
2022/11/09 03:37:36;;;;;;;;;2.33;1.00;;;;;;;;5080967;27;45463;-77
2022/11/09 03:40:02;;;;;;;;;0.00;0.00;;;;;;;;5078925;27;46201;-76
2022/11/09 03:42:27;;;;;;;;;0.00;0.00;;;;;;;;5084784;27;45370;-77
2022/11/09 03:44:52;;;;;;;;;2.00;0.33;;;;;;;;5079721;27;45495;-77
2022/11/09 03:47:17;;;;;;;;;2.00;1.00;;;;;;;;5089185;27;45367;-77
2022/11/09 03:49:43;;;;;;;;;2.00;0.67;;;;;;;;5099497;27;45344;-77
2022/11/09 03:52:08;;;;;;;;;1.33;0.00;;;;;;;;5089184;27;45288;-77
2022/11/09 03:54:33;;;;;;;;;1.00;1.00;;;;;;;;5078992;27;44803;-76
2022/11/09 03:56:58;;;;;;;;;0.33;0.00;;;;;;;;5083695;27;45477;-77
2022/11/09 03:59:23;;;;;;;;;2.00;0.00;;;;;;;;5078646;28;46301;-77
2022/11/09 04:01:48;;;;;;;;;0.67;0.67;;;;;;;;5083590;27;45393;-76
2022/11/09 04:04:14;;;;;;;;;1.00;0.00;;;;;;;;5093723;27;45442;-75
2022/11/09 04:06:39;;;;;;;;;0.00;0.00;;;;;;;;5090517;27;45516;-76
2022/11/09 04:09:04;;;;;;;;;0.00;0.00;;;;;;;;5078371;27;46441;-76
2022/11/09 04:11:29;;;;;;;;;0.33;0.33;;;;;;;;5083429;27;45374;-75
2022/11/09 04:13:54;;;;;;;;;0.00;0.00;;;;;;;;5079870;27;45586;-76
2022/11/09 04:16:20;;;;;;;;;0.33;0.33;;;;;;;;5081171;27;45540;-75
2022/11/09 04:18:45;;;;;;;;;0.00;0.00;;;;;;;;5082757;27;45477;-76
2022/11/09 04:21:10;;;;;;;;;1.00;0.00;;;;;;;;5085093;27;45516;-75
2022/11/09 04:23:35;;;;;;;;;0.00;0.00;;;;;;;;5085865;27;45402;-75
2022/11/09 04:26:01;;;;;;;;;1.00;0.00;;;;;;;;5078467;27;45339;-75
2022/11/09 04:28:26;;;;;;;;;0.00;0.00;;;;;;;;5077270;27;48522;-75
2022/11/09 04:30:51;;;;;;;;;0.00;0.00;;;;;;;;5093116;27;45287;-76
2022/11/09 04:33:16;;;;;;;;;0.00;0.00;;;;;;;;5084793;27;45362;-75
2022/11/09 04:35:41;;;;;;;;;0.33;0.00;;;;;;;;5089482;27;45625;-75
2022/11/09 04:38:09;;;;;;;;;1.00;0.00;;;;;;;;5083609;27;45223;-75
2022/11/09 04:40:34;;;;;;;;;0.00;0.00;;;;;;;;5081437;27;45380;-75
2022/11/09 04:43:00;;;;;;;;;1.33;0.00;;;;;;;;5081172;27;45276;-75
2022/11/09 04:45:25;;;;;;;;;0.00;0.00;;;;;;;;5081281;27;45443;-75
2022/11/09 04:47:50;;;;;;;;;0.00;0.00;;;;;;;;5081156;27;46395;-76
2022/11/09 04:50:16;;;;;;;;;0.00;0.00;;;;;;;;5081448;27;45275;-76
2022/11/09 04:52:41;;;;;;;;;0.33;0.33;;;;;;;;5081046;27;45447;-75
2022/11/09 04:55:06;;;;;;;;;2.00;1.00;;;;;;;;5082164;27;46464;-75
2022/11/09 04:57:32;;;;;;;;;0.67;0.00;;;;;;;;5090065;27;45367;-75
2022/11/09 04:59:57;;;;;;;;;1.00;1.00;;;;;;;;5081570;27;45329;-75
2022/11/09 05:02:22;;;;;;;;;0.00;0.00;;;;;;;;5093090;27;45505;-76
2022/11/09 05:04:48;;;;;;;;;1.33;0.00;;;;;;;;5097200;27;46946;-75
2022/11/09 05:07:13;;;;;;;;;1.33;0.00;;;;;;;;5086957;27;46098;-76
2022/11/09 05:09:38;;;;;;;;;0.00;0.00;;;;;;;;5092497;27;45397;-75
2022/11/09 05:12:03;;;;;;;;;0.00;0.00;;;;;;;;5086356;27;45690;-76
2022/11/09 05:14:29;;;;;;;;;0.33;0.00;;;;;;;;5080948;27;45417;-76
2022/11/09 05:16:54;;;;;;;;;0.00;0.00;;;;;;;;5082973;27;45492;-75
2022/11/09 05:19:19;;;;;;;;;0.00;0.00;;;;;;;;5094986;27;45289;-76
2022/11/09 05:21:44;;;;;;;;;5.00;1.00;;;;;;;;5083229;27;45348;-76
2022/11/09 05:24:10;;;;;;;;;1.33;0.00;;;;;;;;5080887;27;45390;-76
2022/11/09 05:26:36;;;;;;;;;0.00;0.00;;;;;;;;5082602;27;46203;-76
2022/11/09 05:29:04;;;;;;;;;2.67;1.00;;;;;;;;5080752;27;45341;-76
2022/11/09 05:31:30;;;;;;;;;0.00;0.00;;;;;;;;5082774;27;45384;-75
2022/11/09 05:33:55;;;;;;;;;0.00;0.00;;;;;;;;5083527;27;45225;-75
2022/11/09 05:36:20;;;;;;;;;0.67;0.33;;;;;;;;5090274;27;46568;-75
2022/11/09 05:38:46;;;;;;;;;3.00;1.00;;;;;;;;5080936;27;45168;-76
2022/11/09 05:41:11;;;;;;;;;2.33;0.67;;;;;;;;5080636;27;45410;-75
2022/11/09 05:43:36;;;;;;;;;3.67;1.00;;;;;;;;5080329;27;45223;-75
2022/11/09 05:46:02;;;;;;;;;0.33;0.33;;;;;;;;5081652;27;46070;-75
2022/11/09 05:48:27;;;;;;;;;3.67;1.00;;;;;;;;5087908;27;45331;-76
2022/11/09 05:50:52;;;;;;;;;4.00;2.00;;;;;;;;5080622;27;45264;-75
2022/11/09 05:53:18;;;;;;;;;2.00;1.00;;;;;;;;5082479;27;45290;-76
2022/11/09 05:55:43;;;;;;;;;1.00;1.00;;;;;;;;5080504;27;46167;-75
2022/11/09 05:58:08;;;;;;;;;2.33;0.33;;;;;;;;5087136;27;45434;-76
2022/11/09 06:00:33;;;;;;;;;6.00;0.00;;;;;;;;5082206;27;44829;-76
2022/11/09 06:03:06;;;;;;;;;1.33;1.00;;;;;;;;5084910;27;45414;-76
2022/11/09 06:05:32;;;;;;;;;0.33;0.33;;;;;;;;5085041;27;47227;-75
2022/11/09 06:08:05;;;;;;;;;2.00;0.00;;;;;;;;5090221;27;45386;-76
2022/11/09 06:10:30;;;;;;;;;1.67;1.33;;;;;;;;5092106;27;44775;-76
2022/11/09 06:12:55;;;;;;;;;4.67;0.00;;;;;;;;5083151;27;46098;-75
2022/11/09 06:15:20;;;;;;;;;2.00;1.00;;;;;;;;5093471;27;45415;-76
2022/11/09 06:17:55;;;;;;;;;5.67;3.00;;;;;;;;5082361;27;45165;-75
2022/11/09 06:20:21;;;;;;;;;2.67;1.00;;;;;;;;5080099;27;45331;-75
2022/11/09 06:22:56;;;;;;;;;4.67;1.00;;;;;;;;5090608;27;45267;-75
2022/11/09 06:25:22;;;;;;;;;2.33;0.33;;;;;;;;5079871;27;45298;-76
2022/11/09 06:27:47;;;;;;;;;2.00;1.00;;;;;;;;5081432;27;45287;-75
2022/11/09 06:30:12;;;;;;;;;1.00;1.00;;;;;;;;5077995;27;45413;-75
2022/11/09 06:32:37;;;;;;;;;2.00;1.00;;;;;;;;5082289;27;45483;-75
2022/11/09 06:35:03;;;;;;;;;4.00;1.00;;;;;;;;5084471;27;45644;-78
2022/11/09 06:37:28;;;;;;;;;0.67;0.67;;;;;;;;5081899;27;45377;-78
2022/11/09 06:39:53;;;;;;;;;1.33;1.00;;;;;;;;5092402;27;45329;-77
2022/11/09 06:42:18;;;;;;;;;2.67;1.67;;;;;;;;5083278;27;45395;-80
2022/11/09 06:44:44;;;;;;;;;1.67;1.67;;;;;;;;5079738;27;46192;-80
2022/11/09 06:47:09;;;;;;;;;2.00;1.00;;;;;;;;5078895;27;45375;-81
2022/11/09 06:49:34;;;;;;;;;3.00;1.00;;;;;;;;5079803;27;45345;-81
2022/11/09 06:51:59;;;;;;;;;3.33;1.00;;;;;;;;5086342;27;45426;-80
2022/11/09 06:54:24;;;;;;;;;2.00;1.00;;;;;;;;5079583;27;45424;-78
2022/11/09 06:56:52;;;;;;;;;5.00;1.00;;;;;;;;5084990;27;45403;-76
2022/11/09 06:59:17;;;;;;;;;3.00;2.00;;;;;;;;5082005;27;45560;-75
2022/11/09 07:01:42;;;;;;;;;4.33;1.67;;;;;;;;5091252;27;45509;-75
2022/11/09 07:04:08;;;;;;;;;4.33;2.67;;;;;;;;5091709;27;45413;-76
2022/11/09 07:06:33;;;;;;;;;3.67;2.00;;;;;;;;5090691;27;45378;-75
2022/11/09 07:08:58;;;;;;;;;2.33;1.33;;;;;;;;5091858;27;45407;-77
2022/11/09 07:11:23;;;;;;;;;2.00;2.00;;;;;;;;5088049;27;45253;-75
2022/11/09 07:13:48;;;;;;;;;3.00;2.00;;;;;;;;5078804;28;45255;-78
2022/11/09 07:16:16;;;;;;;;;4.00;2.00;;;;;;;;5083296;27;45165;-75
2022/11/09 07:18:41;;;;;;;;;3.00;2.00;;;;;;;;5084594;27;45346;-75
2022/11/09 07:21:07;;;;;;;;;4.00;2.00;;;;;;;;5086854;27;45300;-75
2022/11/09 07:23:32;;;;;;;;;5.00;3.33;;;;;;;;5081997;27;45421;-75
2022/11/09 07:25:58;;;;;;;;;4.00;2.67;;;;;;;;5082631;27;45271;-75
2022/11/09 07:28:23;;;;;;;;;2.67;2.00;;;;;;;;5078734;27;44807;-76
2022/11/09 07:30:51;;;;;;;;;5.00;2.67;;;;;;;;5079446;27;46194;-76
2022/11/09 07:33:17;;;;;;;;;4.00;3.67;;;;;;;;5083669;27;48216;-75
2022/11/09 07:35:42;;;;;;;;;4.00;2.00;;;;;;;;5086577;27;45413;-75
2022/11/09 07:38:07;;;;;;;;;2.00;2.00;;;;;;;;5078782;27;45258;-76
2022/11/09 07:40:33;;;;;;;;;2.67;1.67;;;;;;;;5079521;27;45748;-76
2022/11/09 07:42:59;;;;;;;;;2.33;1.00;;;;;;;;5079526;27;46098;-79
2022/11/09 07:45:24;;;;;;;;;2.00;2.00;;;;;;;;5078762;27;45174;-77
2022/11/09 07:47:53;;;;;;;;;3.00;1.33;;;;;;;;5082261;27;45434;-77
2022/11/09 07:50:18;;;;;;;;;4.33;2.00;;;;;;;;5078518;27;45332;-77
2022/11/09 07:52:44;;;;;;;;;4.00;2.33;;;;;;;;5082311;27;45589;-77
2022/11/09 07:55:09;;;;;;;;;4.67;1.67;;;;;;;;5078724;27;45366;-77
2022/11/09 07:57:34;;;;;;;;;3.67;1.67;;;;;;;;5085788;27;45420;-77
2022/11/09 07:59:59;;;;;;;;;3.00;3.00;;;;;;;;5078704;27;45504;-77
2022/11/09 08:02:24;;;;;;;;;3.00;1.67;;;;;;;;5082239;27;45430;-78
2022/11/09 08:04:50;;;;;;;;;7.67;3.33;;;;;;;;5078822;28;45335;-77
2022/11/09 08:07:15;;;;;;;;;4.00;3.00;;;;;;;;5087652;27;45404;-77
2022/11/09 08:09:40;;;;;;;;;4.00;2.33;;;;;;;;5081926;27;45310;-78
2022/11/09 08:12:05;;;;;;;;;3.00;3.00;;;;;;;;5082339;27;45338;-77
2022/11/09 08:14:31;;;;;;;;;4.00;3.00;;;;;;;;5099853;27;45733;-77
2022/11/09 08:16:56;;;;;;;;;4.67;3.00;;;;;;;;5090204;27;45360;-76
2022/11/09 08:19:21;;;;;;;;;1.33;1.33;;;;;;;;5085334;27;46133;-78
2022/11/09 08:21:47;;;;;;;;;3.33;3.00;;;;;;;;5088900;27;46482;-76
2022/11/09 08:24:12;;;;;;;;;2.00;2.00;;;;;;;;5084373;27;45235;-76
2022/11/09 08:26:37;;;;;;;;;3.67;2.00;;;;;;;;5082722;27;45364;-77
2022/11/09 08:29:02;;;;;;;;;4.67;2.67;;;;;;;;5090932;27;45858;-76
2022/11/09 08:31:28;;;;;;;;;4.00;3.00;;;;;;;;5094492;27;47600;-77
2022/11/09 08:33:53;;;;;;;;;3.00;2.00;;;;;;;;5083108;27;45289;-77
2022/11/09 08:36:18;;;;;;;;;5.00;2.00;;;;;;;;5085329;27;45295;-76
2022/11/09 08:38:44;;;;;;;;;5.67;1.67;;;;;;;;5089525;27;45239;-77
2022/11/09 08:41:10;;;;;;;;;3.67;2.00;;;;;;;;5090477;27;46557;-77
2022/11/09 08:43:35;;;;;;;;;3.33;2.00;;;;;;;;5081516;27;45248;-76
2022/11/09 08:46:00;;;;;;;;;3.67;1.67;;;;;;;;5083667;27;45306;-76
2022/11/09 08:48:26;;;;;;;;;2.67;2.00;;;;;;;;5081619;27;45178;-77
2022/11/09 08:50:54;;;;;;;;;5.67;3.00;;;;;;;;5087477;27;45687;-78
2022/11/09 08:53:20;;;;;;;;;4.00;2.67;;;;;;;;5081138;27;45304;-77
2022/11/09 08:55:45;;;;;;;;;2.67;2.67;;;;;;;;5082550;27;45283;-77
2022/11/09 08:58:10;;;;;;;;;5.00;2.00;;;;;;;;5082046;27;45257;-77
2022/11/09 09:00:35;;;;;;;;;5.00;2.00;;;;;;;;5082350;27;45217;-77
2022/11/09 09:03:06;;;;;;;;;3.67;2.00;;;;;;;;5083099;27;45350;-75
2022/11/09 09:05:32;;;;;;;;;5.67;3.33;;;;;;;;5082431;27;44799;-76
2022/11/09 09:07:58;;;;;;;;;3.67;2.33;;;;;;;;5087289;27;45870;-76
2022/11/09 09:10:23;;;;;;;;;2.67;2.00;;;;;;;;5080760;27;45400;-76
2022/11/09 09:12:49;;;;;;;;;2.00;2.00;;;;;;;;5091752;27;45501;-76
2022/11/09 09:15:14;;;;;;;;;2.67;2.67;;;;;;;;5100653;27;45643;-75
2022/11/09 09:17:39;;;;;;;;;3.00;2.00;;;;;;;;5084412;27;45355;-75
2022/11/09 09:20:05;;;;;;;;;4.33;2.00;;;;;;;;5078200;27;47211;-73
2022/11/09 09:22:31;;;;;;;;;3.33;2.00;;;;;;;;5080986;27;45430;-73
2022/11/09 09:24:56;;;;;;;;;4.67;3.00;;;;;;;;5081055;27;44718;-72
2022/11/09 09:27:21;;;;;;;;;3.00;2.00;;;;;;;;5080795;27;45304;-72
2022/11/09 09:29:46;;;;;;;;;4.00;2.00;;;;;;;;5088182;27;45432;-74
2022/11/09 09:32:11;;;;;;;;;4.33;1.00;;;;;;;;5086081;27;45292;-74
2022/11/09 09:34:37;;;;;;;;;1.33;1.00;;;;;;;;5084821;27;44770;-75
2022/11/09 09:37:02;;;;;;;;;2.33;2.00;;;;;;;;5081869;27;45322;-74
2022/11/09 09:39:27;;;;;;;;;5.67;2.33;;;;;;;;5080524;27;45325;-74
2022/11/09 09:41:58;;;;;;;;;3.00;1.50;;;;;;;;5082757;27;45409;-74
2022/11/09 09:44:28;;;;;;;;;2.00;2.00;;;;;;;;5080420;27;45276;-74
2022/11/09 09:47:19;;;;;;;;;3.00;1.00;;;;;;;;5082510;27;45256;-75
2022/11/09 09:49:51;;;;;;;;;0.33;0.33;;;;;;;;5081222;27;45350;-76
2022/11/09 09:52:19;;;;;;;;;2.00;2.00;;;;;;;;5090874;27;45277;-75
2022/11/09 09:54:57;;;;;;;;;1.67;1.67;;;;;;;;5081088;27;45473;-71
2022/11/09 09:57:24;;;;;;;;;3.67;2.00;;;;;;;;5082961;27;45326;-74
2022/11/09 09:59:50;;;;;;;;;4.33;1.00;;;;;;;;5080383;27;45328;-74
2022/11/09 10:02:18;;;;;;;;;2.67;1.00;;;;;;;;5082588;27;45441;-73
2022/11/09 10:04:44;;;;;;;;;2.00;0.00;;;;;;;;5080500;27;45309;-73
2022/11/09 10:07:12;;;;;;;;;1.67;1.67;;;;;;;;5084245;27;45568;-74
2022/11/09 10:09:56;;;;;;;;;2.00;1.67;;;;;;;;5080104;27;46221;-74
2022/11/09 10:12:30;;;;;;;;;5.00;3.00;;;;;;;;5087931;27;45286;-74
2022/11/09 10:14:58;;;;;;;;;4.00;1.33;;;;;;;;5096454;27;45331;-74
2022/11/09 10:17:29;;;;;;;;;1.33;1.00;;;;;;;;5083985;27;45381;-73
2022/11/09 10:20:01;;;;;;;;;1.00;1.00;;;;;;;;5079558;27;46361;-73
2022/11/09 10:22:42;;;;;;;;;5.00;2.00;;;;;;;;5081276;27;45503;-74
2022/11/09 10:25:10;;;;;;;;;3.67;3.00;;;;;;;;5094131;27;45404;-74
2022/11/09 10:27:36;;;;;;;;;5.00;1.00;;;;;;;;5079331;27;45757;-74
2022/11/09 10:30:18;;;;;;;;;4.00;3.00;;;;;;;;5089883;27;45671;-74
2022/11/09 10:32:45;;;;;;;;;1.00;1.00;;;;;;;;5079106;27;45260;-73
2022/11/09 10:35:29;;;;;;;;;2.00;2.00;;;;;;;;5082934;27;45294;-73
2022/11/09 10:37:54;;;;;;;;;2.33;2.33;;;;;;;;5082684;27;45325;-73
2022/11/09 10:40:26;;;;;;;;;2.00;1.00;;;;;;;;5079718;27;45515;-73
2022/11/09 10:42:54;;;;;;;;;5.33;2.67;;;;;;;;5080926;27;45385;-72
2022/11/09 10:45:22;;;;;;;;;5.00;2.00;;;;;;;;5079618;27;45231;-74
2022/11/09 10:47:48;;;;;;;;;3.00;1.33;;;;;;;;5089617;27;45361;-74
2022/11/09 10:50:16;;;;;;;;;2.33;2.00;;;;;;;;5093838;27;46388;-74
2022/11/09 10:52:41;;;;;;;;;4.00;1.00;;;;;;;;5087133;27;45366;-74
2022/11/09 10:55:27;;;;;;;;;3.00;2.00;;;;;;;;5082821;27;45314;-74
2022/11/09 10:57:57;;;;;;;;;3.33;1.00;;;;;;;;5083025;27;45417;-75
2022/11/09 11:00:23;;;;;;;;;2.00;2.00;;;;;;;;5079247;27;45510;-74
2022/11/09 11:02:50;;;;;;;;;2.33;2.33;;;;;;;;5083290;27;45432;-74
2022/11/09 11:05:15;;;;;;;;;3.67;2.00;;;;;;;;5093512;27;45324;-74
2022/11/09 11:07:41;;;;;;;;;2.67;1.00;;;;;;;;5087233;27;45999;-73
2022/11/09 11:10:09;;;;;;;;;4.00;1.00;;;;;;;;5078823;27;45389;-72
2022/11/09 11:12:34;;;;;;;;;2.33;1.00;;;;;;;;5085036;27;45429;-73
2022/11/09 11:15:00;;;;;;;;;1.00;1.00;;;;;;;;5079412;27;45582;-74
2022/11/09 11:17:26;;;;;;;;;1.00;1.00;;;;;;;;5081252;27;45426;-74
2022/11/09 11:19:51;;;;;;;;;1.00;1.00;;;;;;;;5079237;27;46813;-74
2022/11/09 11:22:19;;;;;;;;;3.00;2.00;;;;;;;;5090500;27;45402;-74
2022/11/09 11:24:50;;;;;;;;;2.00;1.00;;;;;;;;5079306;27;45315;-74
2022/11/09 11:27:20;;;;;;;;;4.33;2.00;;;;;;;;5078161;27;45402;-73
2022/11/09 11:29:47;;;;;;;;;1.33;1.33;;;;;;;;5078868;27;45362;-74
2022/11/09 11:32:17;;;;;;;;;2.00;0.33;;;;;;;;5078766;27;45386;-74
2022/11/09 11:34:42;;;;;;;;;1.67;1.33;;;;;;;;5081951;27;44734;-74
2022/11/09 11:37:07;;;;;;;;;1.00;1.00;;;;;;;;5079686;27;45499;-74
2022/11/09 11:39:42;;;;;;;;;3.00;1.00;;;;;;;;5078896;27;45661;-74
2022/11/09 11:42:08;;;;;;;;;1.00;1.00;;;;;;;;5079876;27;45405;-74
2022/11/09 11:44:33;;;;;;;;;3.00;3.00;;;;;;;;5082692;27;45487;-73
2022/11/09 11:47:08;;;;;;;;;3.00;1.00;;;;;;;;5084992;27;46974;-75
2022/11/09 11:49:41;;;;;;;;;1.33;0.67;;;;;;;;5083212;27;46318;-75
2022/11/09 11:52:18;;;;;;;;;1.00;1.00;;;;;;;;5082567;27;45236;-74
2022/11/09 11:54:46;;;;;;;;;0.67;0.67;;;;;;;;5090719;27;45522;-76
2022/11/09 11:57:11;;;;;;;;;4.00;2.00;;;;;;;;5097271;27;45366;-74
2022/11/09 11:59:46;;;;;;;;;3.00;2.00;;;;;;;;5083979;27;45388;-77
2022/11/09 12:02:21;;;;;;;;;3.33;2.00;;;;;;;;5092264;27;45438;-77
2022/11/09 12:05:05;;;;;;;;;5.67;5.67;;;;;;;;5082555;27;45355;-76
2022/11/09 12:07:39;;;;;;;;;2.00;2.00;;;;;;;;5084546;27;45604;-76
2022/11/09 12:10:23;;;;;;;;;5.33;1.33;;;;;;;;5082100;27;45398;-77
2022/11/09 12:12:57;;;;;;;;;2.33;1.00;;;;;;;;5087316;27;45422;-76
2022/11/09 12:15:28;;;;;;;;;4.67;1.67;;;;;;;;5082131;27;45165;-76
2022/11/09 12:17:57;;;;;;;;;0.00;0.00;;;;;;;;5094204;27;45338;-76
2022/11/09 12:20:42;;;;;;;;;3.00;1.00;;;;;;;;5094967;27;47039;-76
2022/11/09 12:23:19;;;;;;;;;4.33;3.00;;;;;;;;5086246;27;45305;-77
2022/11/09 12:25:47;;;;;;;;;1.33;1.33;;;;;;;;5090037;27;45271;-76
2022/11/09 12:28:18;;;;;;;;;1.00;1.00;;;;;;;;5082790;27;45614;-77
2022/11/09 12:31:02;;;;;;;;;1.00;1.00;;;;;;;;5081560;27;48122;-76
2022/11/09 12:33:39;;;;;;;;;1.00;1.00;;;;;;;;5085135;27;45345;-78
2022/11/09 12:36:11;;;;;;;;;2.00;1.00;;;;;;;;5083149;27;45330;-78
2022/11/09 12:38:40;;;;;;;;;2.00;2.00;;;;;;;;5081727;27;45273;-77
2022/11/09 12:41:14;;;;;;;;;4.67;1.00;;;;;;;;5082168;27;47052;-77
2022/11/09 12:43:58;;;;;;;;;3.00;1.00;;;;;;;;5091018;27;45514;-77
2022/11/09 12:46:33;;;;;;;;;2.00;0.00;;;;;;;;5082455;27;45395;-77
2022/11/09 12:49:00;;;;;;;;;3.00;1.00;;;;;;;;5081924;27;45449;-76
2022/11/09 12:51:26;;;;;;;;;3.00;1.67;;;;;;;;5085584;27;45409;-76
2022/11/09 12:53:52;;;;;;;;;4.33;2.00;;;;;;;;5086719;27;45445;-76
2022/11/09 12:56:21;;;;;;;;;3.33;1.00;;;;;;;;5087079;27;45653;-77
2022/11/09 12:58:47;;;;;;;;;1.00;1.00;;;;;;;;5081300;27;45296;-76
2022/11/09 13:01:32;;;;;;;;;1.00;1.00;;;;;;;;5088447;27;47503;-77
2022/11/09 13:03:59;;;;;;;;;2.33;0.67;;;;;;;;5087968;27;45160;-76
2022/11/09 13:06:25;;;;;;;;;3.00;2.00;;;;;;;;5082357;27;45425;-75
2022/11/09 13:08:59;;;;;;;;;1.00;1.00;;;;;;;;5085685;27;45988;-76
2022/11/09 13:11:32;;;;;;;;;1.00;1.00;;;;;;;;5081737;27;45286;-75
2022/11/09 13:14:16;;;;;;;;;3.00;0.00;;;;;;;;5085202;27;44794;-75
2022/11/09 13:16:42;;;;;;;;;2.00;1.00;;;;;;;;5081664;27;45509;-75
2022/11/09 13:19:07;;;;;;;;;7.00;1.00;;;;;;;;5094193;27;45409;-75
2022/11/09 13:21:35;;;;;;;;;1.00;1.00;;;;;;;;5090404;27;45402;-76
2022/11/09 13:24:20;;;;;;;;;1.00;1.00;;;;;;;;5086630;27;45388;-75
2022/11/09 13:26:46;;;;;;;;;0.67;0.00;;;;;;;;5086249;27;45383;-75
2022/11/09 13:29:11;;;;;;;;;1.00;1.00;;;;;;;;5082158;27;45527;-75
2022/11/09 13:31:55;;;;;;;;;0.00;0.00;;;;;;;;5084192;27;45306;-75
2022/11/09 13:34:38;;;;;;;;;0.00;0.00;;;;;;;;5088139;27;45328;-75
2022/11/09 13:37:22;;;;;;;;;1.00;1.00;;;;;;;;5094272;27;45378;-76
2022/11/09 13:39:47;;;;;;;;;0.00;0.00;;;;;;;;5093626;27;46212;-75
2022/11/09 13:42:27;;;;;;;;;0.00;0.00;;;;;;;;5090150;27;45649;-75
2022/11/09 13:44:52;;;;;;;;;0.00;0.00;;;;;;;;5081583;27;45618;-76
2022/11/09 13:47:22;;;;;;;;;0.00;0.00;;;;;;;;5085708;27;45319;-75
2022/11/09 13:49:49;;;;;;;;;0.33;0.33;;;;;;;;5080875;27;45551;-75
2022/11/09 13:52:34;;;;;;;;;1.33;0.00;;;;;;;;5085888;27;45930;-75
2022/11/09 13:54:59;;;;;;;;;0.00;0.00;;;;;;;;5080526;27;45402;-74
2022/11/09 13:57:25;;;;;;;;;0.00;0.00;;;;;;;;5091362;27;45406;-75
2022/11/09 13:59:51;;;;;;;;;3.00;3.00;;;;;;;;5080724;27;45489;-75
2022/11/09 14:02:18;;;;;;;;;1.00;1.00;;;;;;;;5081643;27;45425;-75
2022/11/09 14:04:43;;;;;;;;;2.33;2.00;;;;;;;;5097183;27;45461;-76
2022/11/09 14:07:18;;;;;;;;;3.33;0.67;;;;;;;;5086326;27;45432;-76
2022/11/09 14:10:00;;;;;;;;;0.00;0.00;;;;;;;;5095156;27;45339;-75
2022/11/09 14:12:45;;;;;;;;;1.67;1.67;;;;;;;;5086561;27;48069;-76
2022/11/09 14:15:19;;;;;;;;;2.00;1.00;;;;;;;;5082334;27;45645;-75
2022/11/09 14:17:54;;;;;;;;;6.00;4.00;;;;;;;;5079558;27;45433;-75
2022/11/09 14:20:37;;;;;;;;;4.00;2.00;;;;;;;;5096662;27;45499;-75
2022/11/09 14:23:02;;;;;;;;;2.33;2.00;;;;;;;;5079282;27;46378;-75
2022/11/09 14:25:29;;;;;;;;;2.67;1.67;;;;;;;;5084674;27;45224;-75
2022/11/09 14:27:57;;;;;;;;;3.33;2.00;;;;;;;;5080191;27;45396;-74
2022/11/09 14:30:24;;;;;;;;;3.00;3.00;;;;;;;;5091258;27;45340;-75
2022/11/09 14:32:50;;;;;;;;;2.67;2.67;;;;;;;;5080681;27;45775;-75
2022/11/09 14:35:28;;;;;;;;;7.00;4.33;;;;;;;;5089416;27;45599;-75
2022/11/09 14:37:54;;;;;;;;;2.33;2.00;;;;;;;;5080800;27;45349;-74
2022/11/09 14:40:19;;;;;;;;;1.00;1.00;;;;;;;;5085321;27;45570;-75
2022/11/09 14:42:47;;;;;;;;;6.00;2.33;;;;;;;;5080475;27;45536;-74
2022/11/09 14:45:13;;;;;;;;;0.33;0.33;;;;;;;;5080844;27;45383;-74